Terminal Aerodrome Forecast
Issued by NWS

Home | Current Version | Previous Version | Text Only | Print | Product List | Glossary On
Versions: 1 2 3 4 5 6 7 8 9 10 11 12 13 14
599
FTUS46 KSTO 160317 AAA
TAFMHR
TAF AMD
KMHR 160317Z 1603/1624 VRB04KT 5SM BR BKN100
     FM161400 33010KT P6SM SKC
     FM161800 34020G28KT P6SM FEW250=

USA.gov is the U.S. government's official web portal to all federal, state and local government web resources and services.